sensor_id;sensor_type;location;lat;lon;timestamp;temperature;humidity
11559;DHT22;5835;42.930;25.178;2022-11-15T00:00:12;7.30;99.90
11559;DHT22;5835;42.930;25.178;2022-11-15T00:02:40;7.40;99.90
11559;DHT22;5835;42.930;25.178;2022-11-15T00:05:08;7.40;99.90
11559;DHT22;5835;42.930;25.178;2022-11-15T00:07:35;7.50;99.90
11559;DHT22;5835;42.930;25.178;2022-11-15T00:10:03;7.50;99.90
11559;DHT22;5835;42.930;25.178;2022-11-15T00:12:32;7.50;99.90
11559;DHT22;5835;42.930;25.178;2022-11-15T00:15:00;7.40;99.90
11559;DHT22;5835;42.930;25.178;2022-11-15T00:17:27;7.30;99.90
11559;DHT22;5835;42.930;25.178;2022-11-15T00:19:55;7.30;99.90
11559;DHT22;5835;42.930;25.178;2022-11-15T00:22:23;7.30;99.90
11559;DHT22;5835;42.930;25.178;2022-11-15T00:24:51;7.30;99.90
11559;DHT22;5835;42.930;25.178;2022-11-15T00:27:18;7.30;99.90
11559;DHT22;5835;42.930;25.178;2022-11-15T00:29:47;7.30;99.90
11559;DHT22;5835;42.930;25.178;2022-11-15T00:32:14;7.20;99.90
11559;DHT22;5835;42.930;25.178;2022-11-15T00:34:42;7.20;99.90
11559;DHT22;5835;42.930;25.178;2022-11-15T00:37:09;7.20;99.90
11559;DHT22;5835;42.930;25.178;2022-11-15T00:39:37;7.30;99.90
11559;DHT22;5835;42.930;25.178;2022-11-15T00:42:04;7.30;99.90
11559;DHT22;5835;42.930;25.178;2022-11-15T00:44:32;7.30;99.90
11559;DHT22;5835;42.930;25.178;2022-11-15T00:47:01;7.30;99.90
11559;DHT22;5835;42.930;25.178;2022-11-15T00:49:28;7.30;99.90
11559;DHT22;5835;42.930;25.178;2022-11-15T00:51:56;7.30;99.90
11559;DHT22;5835;42.930;25.178;2022-11-15T00:54:23;7.30;99.90
11559;DHT22;5835;42.930;25.178;2022-11-15T00:56:51;7.30;99.90
11559;DHT22;5835;42.930;25.178;2022-11-15T00:59:19;7.30;99.90
11559;DHT22;5835;42.930;25.178;2022-11-15T01:01:47;7.20;99.90
11559;DHT22;5835;42.930;25.178;2022-11-15T01:04:16;7.20;99.90
11559;DHT22;5835;42.930;25.178;2022-11-15T01:06:43;7.30;99.90
11559;DHT22;5835;42.930;25.178;2022-11-15T01:09:11;7.40;99.90
11559;DHT22;5835;42.930;25.178;2022-11-15T01:11:39;7.50;99.90
11559;DHT22;5835;42.930;25.178;2022-11-15T01:14:07;7.50;99.90
11559;DHT22;5835;42.930;25.178;2022-11-15T01:16:35;7.40;99.90
11559;DHT22;5835;42.930;25.178;2022-11-15T01:19:03;7.40;99.90
11559;DHT22;5835;42.930;25.178;2022-11-15T01:21:32;7.30;99.90
11559;DHT22;5835;42.930;25.178;2022-11-15T01:23:59;7.40;99.90
11559;DHT22;5835;42.930;25.178;2022-11-15T01:26:27;7.30;99.90
11559;DHT22;5835;42.930;25.178;2022-11-15T01:28:54;7.30;99.90
11559;DHT22;5835;42.930;25.178;2022-11-15T01:31:22;7.30;99.90
11559;DHT22;5835;42.930;25.178;2022-11-15T01:33:49;7.30;99.90
11559;DHT22;5835;42.930;25.178;2022-11-15T01:36:20;7.40;99.90
11559;DHT22;5835;42.930;25.178;2022-11-15T01:38:53;7.40;99.90
11559;DHT22;5835;42.930;25.178;2022-11-15T01:41:23;7.30;99.90
11559;DHT22;5835;42.930;25.178;2022-11-15T01:43:53;7.30;99.90
11559;DHT22;5835;42.930;25.178;2022-11-15T01:46:29;7.30;99.90
11559;DHT22;5835;42.930;25.178;2022-11-15T01:49:00;7.20;99.90
11559;DHT22;5835;42.930;25.178;2022-11-15T01:51:30;7.30;99.90
11559;DHT22;5835;42.930;25.178;2022-11-15T01:54:03;7.40;99.90
11559;DHT22;5835;42.930;25.178;2022-11-15T01:56:37;7.50;99.90
11559;DHT22;5835;42.930;25.178;2022-11-15T01:59:08;7.60;99.90
11559;DHT22;5835;42.930;25.178;2022-11-15T02:01:37;7.50;99.90
11559;DHT22;5835;42.930;25.178;2022-11-15T02:04:11;7.50;99.90
11559;DHT22;5835;42.930;25.178;2022-11-15T02:06:40;7.60;99.90
11559;DHT22;5835;42.930;25.178;2022-11-15T02:09:10;7.30;99.90
11559;DHT22;5835;42.930;25.178;2022-11-15T02:11:38;7.30;99.90
11559;DHT22;5835;42.930;25.178;2022-11-15T02:14:05;7.20;99.90
11559;DHT22;5835;42.930;25.178;2022-11-15T02:16:40;7.20;99.90
11559;DHT22;5835;42.930;25.178;2022-11-15T02:19:20;7.10;99.90
11559;DHT22;5835;42.930;25.178;2022-11-15T02:22:03;7.10;99.90
11559;DHT22;5835;42.930;25.178;2022-11-15T02:24:59;7.30;99.90
11559;DHT22;5835;42.930;25.178;2022-11-15T02:27:50;7.40;99.90
11559;DHT22;5835;42.930;25.178;2022-11-15T02:30:24;7.50;99.90
11559;DHT22;5835;42.930;25.178;2022-11-15T02:32:58;7.50;99.90
11559;DHT22;5835;42.930;25.178;2022-11-15T02:35:32;7.60;99.90
11559;DHT22;5835;42.930;25.178;2022-11-15T02:38:08;7.70;99.90
11559;DHT22;5835;42.930;25.178;2022-11-15T02:40:40;7.60;99.90
11559;DHT22;5835;42.930;25.178;2022-11-15T02:43:14;7.60;99.90
11559;DHT22;5835;42.930;25.178;2022-11-15T02:46:06;7.50;99.90
11559;DHT22;5835;42.930;25.178;2022-11-15T02:48:35;7.50;99.90
11559;DHT22;5835;42.930;25.178;2022-11-15T02:51:04;7.30;99.90
11559;DHT22;5835;42.930;25.178;2022-11-15T02:53:33;7.40;99.90
11559;DHT22;5835;42.930;25.178;2022-11-15T02:56:01;7.20;99.90
11559;DHT22;5835;42.930;25.178;2022-11-15T02:58:49;7.10;99.90
11559;DHT22;5835;42.930;25.178;2022-11-15T03:01:34;7.20;99.90
11559;DHT22;5835;42.930;25.178;2022-11-15T03:04:16;7.10;99.90
11559;DHT22;5835;42.930;25.178;2022-11-15T03:06:52;7.20;99.90
11559;DHT22;5835;42.930;25.178;2022-11-15T03:09:28;7.20;99.90
11559;DHT22;5835;42.930;25.178;2022-11-15T03:12:04;7.40;99.90
11559;DHT22;5835;42.930;25.178;2022-11-15T03:14:36;7.70;99.90
11559;DHT22;5835;42.930;25.178;2022-11-15T03:17:13;7.40;99.90
11559;DHT22;5835;42.930;25.178;2022-11-15T03:19:46;7.40;99.90
11559;DHT22;5835;42.930;25.178;2022-11-15T03:22:16;7.60;99.90
11559;DHT22;5835;42.930;25.178;2022-11-15T03:24:47;7.40;99.90
11559;DHT22;5835;42.930;25.178;2022-11-15T03:27:21;7.40;99.90
11559;DHT22;5835;42.930;25.178;2022-11-15T03:29:53;7.40;99.90
11559;DHT22;5835;42.930;25.178;2022-11-15T03:32:26;7.50;99.90
11559;DHT22;5835;42.930;25.178;2022-11-15T03:34:56;7.70;99.90
11559;DHT22;5835;42.930;25.178;2022-11-15T03:37:32;7.70;99.90
11559;DHT22;5835;42.930;25.178;2022-11-15T03:40:01;7.80;99.90
11559;DHT22;5835;42.930;25.178;2022-11-15T03:42:34;7.90;99.90
11559;DHT22;5835;42.930;25.178;2022-11-15T03:45:10;7.90;99.90
11559;DHT22;5835;42.930;25.178;2022-11-15T03:47:45;7.70;99.90
11559;DHT22;5835;42.930;25.178;2022-11-15T03:50:17;7.50;99.90
11559;DHT22;5835;42.930;25.178;2022-11-15T03:52:46;7.50;99.90
11559;DHT22;5835;42.930;25.178;2022-11-15T03:55:16;7.30;99.90
11559;DHT22;5835;42.930;25.178;2022-11-15T03:57:45;7.20;99.90
11559;DHT22;5835;42.930;25.178;2022-11-15T04:00:14;7.20;99.90
11559;DHT22;5835;42.930;25.178;2022-11-15T04:02:43;7.20;99.90
11559;DHT22;5835;42.930;25.178;2022-11-15T04:05:10;7.20;99.90
11559;DHT22;5835;42.930;25.178;2022-11-15T04:07:38;7.00;99.90
11559;DHT22;5835;42.930;25.178;2022-11-15T04:10:07;6.90;99.90
11559;DHT22;5835;42.930;25.178;2022-11-15T04:12:36;6.90;99.90
11559;DHT22;5835;42.930;25.178;2022-11-15T04:15:08;6.80;99.90
11559;DHT22;5835;42.930;25.178;2022-11-15T04:17:38;6.80;99.90
11559;DHT22;5835;42.930;25.178;2022-11-15T04:20:10;6.80;99.90
11559;DHT22;5835;42.930;25.178;2022-11-15T04:23:03;6.90;99.90
11559;DHT22;5835;42.930;25.178;2022-11-15T04:25:50;6.80;99.90
11559;DHT22;5835;42.930;25.178;2022-11-15T04:28:18;6.80;99.90
11559;DHT22;5835;42.930;25.178;2022-11-15T04:30:46;6.80;99.90
11559;DHT22;5835;42.930;25.178;2022-11-15T04:33:14;6.90;99.90
11559;DHT22;5835;42.930;25.178;2022-11-15T04:35:44;7.00;99.90
11559;DHT22;5835;42.930;25.178;2022-11-15T04:38:32;6.80;99.90
11559;DHT22;5835;42.930;25.178;2022-11-15T04:40:59;6.90;99.90
11559;DHT22;5835;42.930;25.178;2022-11-15T04:43:27;7.00;99.90
11559;DHT22;5835;42.930;25.178;2022-11-15T04:45:54;7.20;99.90
11559;DHT22;5835;42.930;25.178;2022-11-15T04:48:22;6.90;99.90
11559;DHT22;5835;42.930;25.178;2022-11-15T04:50:51;6.80;99.90
11559;DHT22;5835;42.930;25.178;2022-11-15T04:53:19;6.90;99.90
11559;DHT22;5835;42.930;25.178;2022-11-15T04:55:46;6.80;99.90
11559;DHT22;5835;42.930;25.178;2022-11-15T04:58:14;6.90;99.90
11559;DHT22;5835;42.930;25.178;2022-11-15T05:00:42;7.00;99.90
11559;DHT22;5835;42.930;25.178;2022-11-15T05:03:09;7.10;99.90
11559;DHT22;5835;42.930;25.178;2022-11-15T05:05:56;7.00;99.90
11559;DHT22;5835;42.930;25.178;2022-11-15T05:08:24;6.80;99.90
11559;DHT22;5835;42.930;25.178;2022-11-15T05:10:52;6.80;99.90
11559;DHT22;5835;42.930;25.178;2022-11-15T05:13:20;6.90;99.90
11559;DHT22;5835;42.930;25.178;2022-11-15T05:15:48;7.10;99.90
11559;DHT22;5835;42.930;25.178;2022-11-15T05:18:15;7.30;99.90
11559;DHT22;5835;42.930;25.178;2022-11-15T05:20:43;7.30;99.90
11559;DHT22;5835;42.930;25.178;2022-11-15T05:23:12;7.30;99.90
11559;DHT22;5835;42.930;25.178;2022-11-15T05:25:40;7.40;99.90
11559;DHT22;5835;42.930;25.178;2022-11-15T05:28:08;7.20;99.90
11559;DHT22;5835;42.930;25.178;2022-11-15T05:30:36;7.10;99.90
11559;DHT22;5835;42.930;25.178;2022-11-15T05:33:04;6.90;99.90
11559;DHT22;5835;42.930;25.178;2022-11-15T05:35:41;6.90;99.90
11559;DHT22;5835;42.930;25.178;2022-11-15T05:38:11;6.80;99.90
11559;DHT22;5835;42.930;25.178;2022-11-15T05:40:39;6.90;99.90
11559;DHT22;5835;42.930;25.178;2022-11-15T05:43:07;7.20;99.90
11559;DHT22;5835;42.930;25.178;2022-11-15T05:45:35;7.30;99.90
11559;DHT22;5835;42.930;25.178;2022-11-15T05:48:07;7.40;99.90
11559;DHT22;5835;42.930;25.178;2022-11-15T05:50:37;7.40;99.90
11559;DHT22;5835;42.930;25.178;2022-11-15T05:53:06;7.40;99.90
11559;DHT22;5835;42.930;25.178;2022-11-15T05:55:36;7.30;99.90
11559;DHT22;5835;42.930;25.178;2022-11-15T05:58:05;7.20;99.90
11559;DHT22;5835;42.930;25.178;2022-11-15T06:00:32;7.10;99.90
11559;DHT22;5835;42.930;25.178;2022-11-15T06:03:00;7.00;99.90
11559;DHT22;5835;42.930;25.178;2022-11-15T06:05:28;7.10;99.90
11559;DHT22;5835;42.930;25.178;2022-11-15T06:07:57;7.10;99.90
11559;DHT22;5835;42.930;25.178;2022-11-15T06:10:26;7.20;99.90
11559;DHT22;5835;42.930;25.178;2022-11-15T06:12:59;7.30;99.90
11559;DHT22;5835;42.930;25.178;2022-11-15T06:15:27;7.40;99.90
11559;DHT22;5835;42.930;25.178;2022-11-15T06:17:56;7.50;99.90
11559;DHT22;5835;42.930;25.178;2022-11-15T06:20:24;7.40;99.90
11559;DHT22;5835;42.930;25.178;2022-11-15T06:22:56;7.30;99.90
11559;DHT22;5835;42.930;25.178;2022-11-15T06:25:24;7.30;99.90
11559;DHT22;5835;42.930;25.178;2022-11-15T06:27:52;7.30;99.90
11559;DHT22;5835;42.930;25.178;2022-11-15T06:30:21;7.20;99.90
11559;DHT22;5835;42.930;25.178;2022-11-15T06:32:48;7.20;99.90
11559;DHT22;5835;42.930;25.178;2022-11-15T06:35:16;7.10;99.90
11559;DHT22;5835;42.930;25.178;2022-11-15T06:37:44;7.20;99.90
11559;DHT22;5835;42.930;25.178;2022-11-15T06:40:12;7.10;99.90
11559;DHT22;5835;42.930;25.178;2022-11-15T06:42:40;7.30;99.90
11559;DHT22;5835;42.930;25.178;2022-11-15T06:45:08;7.50;99.90
11559;DHT22;5835;42.930;25.178;2022-11-15T06:47:44;7.50;99.90
11559;DHT22;5835;42.930;25.178;2022-11-15T06:50:12;7.50;99.90
11559;DHT22;5835;42.930;25.178;2022-11-15T06:52:40;7.60;99.90
11559;DHT22;5835;42.930;25.178;2022-11-15T06:55:08;7.50;99.90
11559;DHT22;5835;42.930;25.178;2022-11-15T06:57:36;7.60;99.90
11559;DHT22;5835;42.930;25.178;2022-11-15T07:00:05;7.30;99.90
11559;DHT22;5835;42.930;25.178;2022-11-15T07:02:33;7.20;99.90
11559;DHT22;5835;42.930;25.178;2022-11-15T07:05:02;7.40;99.90
11559;DHT22;5835;42.930;25.178;2022-11-15T07:07:29;7.40;99.90
11559;DHT22;5835;42.930;25.178;2022-11-15T07:09:57;7.50;99.90
11559;DHT22;5835;42.930;25.178;2022-11-15T07:12:24;7.70;99.90
11559;DHT22;5835;42.930;25.178;2022-11-15T07:14:52;7.60;99.90
11559;DHT22;5835;42.930;25.178;2022-11-15T07:17:19;7.70;99.90
11559;DHT22;5835;42.930;25.178;2022-11-15T07:19:47;7.70;99.90
11559;DHT22;5835;42.930;25.178;2022-11-15T07:22:16;7.70;99.90
11559;DHT22;5835;42.930;25.178;2022-11-15T07:24:43;7.70;99.90
11559;DHT22;5835;42.930;25.178;2022-11-15T07:27:11;7.90;99.90
11559;DHT22;5835;42.930;25.178;2022-11-15T07:29:39;8.00;99.90
11559;DHT22;5835;42.930;25.178;2022-11-15T07:32:06;7.90;99.90
11559;DHT22;5835;42.930;25.178;2022-11-15T07:34:34;7.70;99.90
11559;DHT22;5835;42.930;25.178;2022-11-15T07:37:01;7.70;99.90
11559;DHT22;5835;42.930;25.178;2022-11-15T07:39:30;7.60;99.90
11559;DHT22;5835;42.930;25.178;2022-11-15T07:41:58;7.60;99.90
11559;DHT22;5835;42.930;25.178;2022-11-15T07:44:39;7.70;99.90
11559;DHT22;5835;42.930;25.178;2022-11-15T07:47:07;7.70;99.90
11559;DHT22;5835;42.930;25.178;2022-11-15T07:49:34;7.80;99.90
11559;DHT22;5835;42.930;25.178;2022-11-15T07:52:02;7.80;99.90
11559;DHT22;5835;42.930;25.178;2022-11-15T07:54:31;7.90;99.90
11559;DHT22;5835;42.930;25.178;2022-11-15T07:56:58;7.60;99.90
11559;DHT22;5835;42.930;25.178;2022-11-15T07:59:26;7.50;99.90
11559;DHT22;5835;42.930;25.178;2022-11-15T08:01:54;7.50;99.90
11559;DHT22;5835;42.930;25.178;2022-11-15T08:04:21;7.50;99.90
11559;DHT22;5835;42.930;25.178;2022-11-15T08:06:49;7.60;99.90
11559;DHT22;5835;42.930;25.178;2022-11-15T08:09:17;7.50;99.90
11559;DHT22;5835;42.930;25.178;2022-11-15T08:11:46;7.70;99.90
11559;DHT22;5835;42.930;25.178;2022-11-15T08:14:14;7.70;99.90
11559;DHT22;5835;42.930;25.178;2022-11-15T08:16:42;7.80;99.90
11559;DHT22;5835;42.930;25.178;2022-11-15T08:19:09;7.60;99.90
11559;DHT22;5835;42.930;25.178;2022-11-15T08:21:37;7.80;99.90
11559;DHT22;5835;42.930;25.178;2022-11-15T08:24:05;7.90;99.90
11559;DHT22;5835;42.930;25.178;2022-11-15T08:26:33;8.00;99.90
11559;DHT22;5835;42.930;25.178;2022-11-15T08:29:02;8.00;99.90
11559;DHT22;5835;42.930;25.178;2022-11-15T08:31:29;8.00;99.90
11559;DHT22;5835;42.930;25.178;2022-11-15T08:33:57;8.10;99.90
11559;DHT22;5835;42.930;25.178;2022-11-15T08:36:25;8.30;99.90
11559;DHT22;5835;42.930;25.178;2022-11-15T08:38:52;8.40;99.90
11559;DHT22;5835;42.930;25.178;2022-11-15T08:41:25;8.50;99.90
11559;DHT22;5835;42.930;25.178;2022-11-15T08:43:52;8.60;99.90
11559;DHT22;5835;42.930;25.178;2022-11-15T08:46:21;8.60;99.90
11559;DHT22;5835;42.930;25.178;2022-11-15T08:48:49;8.60;99.90
11559;DHT22;5835;42.930;25.178;2022-11-15T08:51:17;8.60;99.90
11559;DHT22;5835;42.930;25.178;2022-11-15T08:53:44;8.60;99.90
11559;DHT22;5835;42.930;25.178;2022-11-15T08:56:14;8.70;99.90
11559;DHT22;5835;42.930;25.178;2022-11-15T08:58:41;8.70;99.90
11559;DHT22;5835;42.930;25.178;2022-11-15T09:01:16;8.70;99.90
11559;DHT22;5835;42.930;25.178;2022-11-15T09:03:45;8.80;99.90
11559;DHT22;5835;42.930;25.178;2022-11-15T09:06:13;8.60;99.90
11559;DHT22;5835;42.930;25.178;2022-11-15T09:08:41;8.60;99.90
11559;DHT22;5835;42.930;25.178;2022-11-15T09:11:10;8.60;99.90
11559;DHT22;5835;42.930;25.178;2022-11-15T09:13:57;8.70;99.90
11559;DHT22;5835;42.930;25.178;2022-11-15T09:16:25;8.70;99.90
11559;DHT22;5835;42.930;25.178;2022-11-15T09:18:54;8.90;99.90
11559;DHT22;5835;42.930;25.178;2022-11-15T09:21:22;8.90;99.90
11559;DHT22;5835;42.930;25.178;2022-11-15T09:23:50;8.60;99.90
11559;DHT22;5835;42.930;25.178;2022-11-15T09:26:18;8.50;99.90
11559;DHT22;5835;42.930;25.178;2022-11-15T09:28:46;8.30;99.90
11559;DHT22;5835;42.930;25.178;2022-11-15T09:31:14;8.50;99.90
11559;DHT22;5835;42.930;25.178;2022-11-15T09:33:44;8.60;99.90
11559;DHT22;5835;42.930;25.178;2022-11-15T09:36:13;8.60;99.90
11559;DHT22;5835;42.930;25.178;2022-11-15T09:38:40;8.80;99.90
11559;DHT22;5835;42.930;25.178;2022-11-15T09:44:08;9.10;99.90
11559;DHT22;5835;42.930;25.178;2022-11-15T09:46:45;9.00;99.90
11559;DHT22;5835;42.930;25.178;2022-11-15T09:49:18;8.90;99.90
11559;DHT22;5835;42.930;25.178;2022-11-15T09:51:50;9.00;99.90
11559;DHT22;5835;42.930;25.178;2022-11-15T09:54:26;9.10;99.90
11559;DHT22;5835;42.930;25.178;2022-11-15T09:56:56;9.20;99.90
11559;DHT22;5835;42.930;25.178;2022-11-15T10:02:39;9.20;57.20
11559;DHT22;5835;42.930;25.178;2022-11-15T10:05:12;9.20;68.30
11559;DHT22;5835;42.930;25.178;2022-11-15T10:07:49;9.40;96.40
11559;DHT22;5835;42.930;25.178;2022-11-15T10:10:25;9.50;79.60
11559;DHT22;5835;42.930;25.178;2022-11-15T10:12:55;9.40;55.20
11559;DHT22;5835;42.930;25.178;2022-11-15T10:15:23;9.50;56.20
11559;DHT22;5835;42.930;25.178;2022-11-15T10:18:03;9.60;37.50
11559;DHT22;5835;42.930;25.178;2022-11-15T10:20:38;9.60;31.80
11559;DHT22;5835;42.930;25.178;2022-11-15T10:23:14;9.60;37.70
11559;DHT22;5835;42.930;25.178;2022-11-15T10:25:42;9.60;11.30
11559;DHT22;5835;42.930;25.178;2022-11-15T10:28:15;9.60;16.20
11559;DHT22;5835;42.930;25.178;2022-11-15T10:30:45;9.60;1.00
11559;DHT22;5835;42.930;25.178;2022-11-15T10:33:23;9.60;1.00
11559;DHT22;5835;42.930;25.178;2022-11-15T10:36:22;9.50;1.00
11559;DHT22;5835;42.930;25.178;2022-11-15T10:38:58;9.00;1.00
11559;DHT22;5835;42.930;25.178;2022-11-15T10:41:37;8.70;62.90
11559;DHT22;5835;42.930;25.178;2022-11-15T10:44:22;8.50;96.90
11559;DHT22;5835;42.930;25.178;2022-11-15T10:47:21;8.40;99.90
11559;DHT22;5835;42.930;25.178;2022-11-15T10:50:01;8.40;99.90
11559;DHT22;5835;42.930;25.178;2022-11-15T10:52:30;8.40;95.60
11559;DHT22;5835;42.930;25.178;2022-11-15T10:55:04;8.40;99.90
11559;DHT22;5835;42.930;25.178;2022-11-15T10:57:35;8.40;99.90
11559;DHT22;5835;42.930;25.178;2022-11-15T11:00:05;8.30;99.90
11559;DHT22;5835;42.930;25.178;2022-11-15T11:02:35;8.30;99.90
11559;DHT22;5835;42.930;25.178;2022-11-15T11:05:05;8.30;99.90
11559;DHT22;5835;42.930;25.178;2022-11-15T11:07:34;8.50;99.90
11559;DHT22;5835;42.930;25.178;2022-11-15T11:10:17;8.40;99.90
11559;DHT22;5835;42.930;25.178;2022-11-15T11:12:45;8.30;99.90
11559;DHT22;5835;42.930;25.178;2022-11-15T11:15:15;8.40;99.90
11559;DHT22;5835;42.930;25.178;2022-11-15T11:17:53;8.40;99.90
11559;DHT22;5835;42.930;25.178;2022-11-15T11:20:28;8.30;99.90
11559;DHT22;5835;42.930;25.178;2022-11-15T11:23:11;8.40;99.90
11559;DHT22;5835;42.930;25.178;2022-11-15T11:25:51;8.10;99.90
11559;DHT22;5835;42.930;25.178;2022-11-15T11:28:42;8.30;99.90
11559;DHT22;5835;42.930;25.178;2022-11-15T11:31:23;8.20;99.90
11559;DHT22;5835;42.930;25.178;2022-11-15T11:34:00;8.20;99.90
11559;DHT22;5835;42.930;25.178;2022-11-15T11:36:36;8.20;99.90
11559;DHT22;5835;42.930;25.178;2022-11-15T11:39:21;8.20;99.90
11559;DHT22;5835;42.930;25.178;2022-11-15T11:42:02;8.40;99.90
11559;DHT22;5835;42.930;25.178;2022-11-15T11:44:36;8.60;99.90
11559;DHT22;5835;42.930;25.178;2022-11-15T11:47:10;8.50;97.90
11559;DHT22;5835;42.930;25.178;2022-11-15T11:49:42;8.60;98.60
11559;DHT22;5835;42.930;25.178;2022-11-15T11:52:15;8.70;96.50
11559;DHT22;5835;42.930;25.178;2022-11-15T11:54:52;8.80;42.80
11559;DHT22;5835;42.930;25.178;2022-11-15T11:57:29;8.70;83.10
11559;DHT22;5835;42.930;25.178;2022-11-15T12:00:02;8.50;99.90
11559;DHT22;5835;42.930;25.178;2022-11-15T12:02:34;8.90;99.90
11559;DHT22;5835;42.930;25.178;2022-11-15T12:05:10;9.20;99.90
11559;DHT22;5835;42.930;25.178;2022-11-15T12:07:39;9.30;87.60
11559;DHT22;5835;42.930;25.178;2022-11-15T12:10:17;9.50;75.60
11559;DHT22;5835;42.930;25.178;2022-11-15T12:12:53;9.40;36.20
11559;DHT22;5835;42.930;25.178;2022-11-15T12:15:24;9.50;51.60
11559;DHT22;5835;42.930;25.178;2022-11-15T12:17:55;9.60;49.30
11559;DHT22;5835;42.930;25.178;2022-11-15T12:20:25;9.60;27.00
11559;DHT22;5835;42.930;25.178;2022-11-15T12:22:56;9.70;11.20
11559;DHT22;5835;42.930;25.178;2022-11-15T12:25:29;9.80;1.30
11559;DHT22;5835;42.930;25.178;2022-11-15T12:28:03;9.80;7.90
11559;DHT22;5835;42.930;25.178;2022-11-15T12:30:43;9.70;7.40
11559;DHT22;5835;42.930;25.178;2022-11-15T12:33:33;9.60;16.60
11559;DHT22;5835;42.930;25.178;2022-11-15T12:36:04;9.20;16.10
11559;DHT22;5835;42.930;25.178;2022-11-15T12:38:56;9.20;28.20
11559;DHT22;5835;42.930;25.178;2022-11-15T12:41:25;9.20;58.00
11559;DHT22;5835;42.930;25.178;2022-11-15T12:43:55;9.40;48.20
11559;DHT22;5835;42.930;25.178;2022-11-15T12:47:03;9.30;26.80
11559;DHT22;5835;42.930;25.178;2022-11-15T12:49:45;9.60;27.20
11559;DHT22;5835;42.930;25.178;2022-11-15T12:52:16;9.60;8.70
11559;DHT22;5835;42.930;25.178;2022-11-15T12:54:55;9.60;11.20
11559;DHT22;5835;42.930;25.178;2022-11-15T12:57:37;9.60;3.40
11559;DHT22;5835;42.930;25.178;2022-11-15T13:03:24;9.40;23.20
11559;DHT22;5835;42.930;25.178;2022-11-15T13:08:41;9.50;1.00
11559;DHT22;5835;42.930;25.178;2022-11-15T13:11:47;9.30;1.00
11559;DHT22;5835;42.930;25.178;2022-11-15T13:14:49;9.10;21.90
11559;DHT22;5835;42.930;25.178;2022-11-15T13:17:30;8.60;60.80
11559;DHT22;5835;42.930;25.178;2022-11-15T13:20:21;8.50;99.50
11559;DHT22;5835;42.930;25.178;2022-11-15T13:22:50;8.50;96.10
11559;DHT22;5835;42.930;25.178;2022-11-15T13:28:24;8.40;99.90
11559;DHT22;5835;42.930;25.178;2022-11-15T13:30:55;8.40;99.90
11559;DHT22;5835;42.930;25.178;2022-11-15T13:33:27;8.40;99.90
11559;DHT22;5835;42.930;25.178;2022-11-15T13:35:59;8.30;99.90
11559;DHT22;5835;42.930;25.178;2022-11-15T13:38:29;8.40;99.90
11559;DHT22;5835;42.930;25.178;2022-11-15T13:40:58;8.40;99.90
11559;DHT22;5835;42.930;25.178;2022-11-15T13:43:32;8.40;99.90
11559;DHT22;5835;42.930;25.178;2022-11-15T13:46:12;8.40;99.90
11559;DHT22;5835;42.930;25.178;2022-11-15T13:48:41;8.50;99.90
11559;DHT22;5835;42.930;25.178;2022-11-15T13:51:16;8.50;99.90
11559;DHT22;5835;42.930;25.178;2022-11-15T13:53:49;8.50;99.90
11559;DHT22;5835;42.930;25.178;2022-11-15T13:56:20;8.40;99.90
11559;DHT22;5835;42.930;25.178;2022-11-15T13:58:48;8.40;99.90
11559;DHT22;5835;42.930;25.178;2022-11-15T14:01:17;8.50;99.90
11559;DHT22;5835;42.930;25.178;2022-11-15T14:03:55;8.50;99.90
11559;DHT22;5835;42.930;25.178;2022-11-15T14:06:26;8.50;99.90
11559;DHT22;5835;42.930;25.178;2022-11-15T14:09:04;8.50;99.90
11559;DHT22;5835;42.930;25.178;2022-11-15T14:11:50;8.60;99.90
11559;DHT22;5835;42.930;25.178;2022-11-15T14:14:20;8.50;99.90
11559;DHT22;5835;42.930;25.178;2022-11-15T14:16:49;8.30;99.90
11559;DHT22;5835;42.930;25.178;2022-11-15T14:19:40;8.20;99.90
11559;DHT22;5835;42.930;25.178;2022-11-15T14:22:13;8.30;99.90
11559;DHT22;5835;42.930;25.178;2022-11-15T14:24:43;8.30;99.90
11559;DHT22;5835;42.930;25.178;2022-11-15T14:27:19;7.90;99.90
11559;DHT22;5835;42.930;25.178;2022-11-15T14:29:48;7.80;99.90
11559;DHT22;5835;42.930;25.178;2022-11-15T14:32:17;7.90;99.90
11559;DHT22;5835;42.930;25.178;2022-11-15T14:34:46;8.00;99.90
11559;DHT22;5835;42.930;25.178;2022-11-15T14:37:20;7.90;99.90
11559;DHT22;5835;42.930;25.178;2022-11-15T14:39:49;8.00;99.90
11559;DHT22;5835;42.930;25.178;2022-11-15T14:42:17;8.00;99.90
11559;DHT22;5835;42.930;25.178;2022-11-15T14:44:45;8.00;99.90
11559;DHT22;5835;42.930;25.178;2022-11-15T14:47:13;8.20;99.90
11559;DHT22;5835;42.930;25.178;2022-11-15T14:49:40;8.20;99.90
11559;DHT22;5835;42.930;25.178;2022-11-15T14:52:25;8.30;99.90
11559;DHT22;5835;42.930;25.178;2022-11-15T14:54:53;8.50;99.90
11559;DHT22;5835;42.930;25.178;2022-11-15T14:57:21;8.50;99.90
11559;DHT22;5835;42.930;25.178;2022-11-15T14:59:48;8.30;99.90
11559;DHT22;5835;42.930;25.178;2022-11-15T15:02:18;8.30;99.90
11559;DHT22;5835;42.930;25.178;2022-11-15T15:04:46;8.20;99.90
11559;DHT22;5835;42.930;25.178;2022-11-15T15:07:14;8.30;99.90
11559;DHT22;5835;42.930;25.178;2022-11-15T15:09:44;8.30;99.90
11559;DHT22;5835;42.930;25.178;2022-11-15T15:12:15;8.40;99.90
11559;DHT22;5835;42.930;25.178;2022-11-15T15:14:44;8.50;99.90
11559;DHT22;5835;42.930;25.178;2022-11-15T15:17:12;8.50;99.90
11559;DHT22;5835;42.930;25.178;2022-11-15T15:19:40;8.50;99.90
11559;DHT22;5835;42.930;25.178;2022-11-15T15:22:13;8.30;99.90
11559;DHT22;5835;42.930;25.178;2022-11-15T15:24:42;8.20;99.90
11559;DHT22;5835;42.930;25.178;2022-11-15T15:27:10;8.00;99.90
11559;DHT22;5835;42.930;25.178;2022-11-15T15:29:38;7.90;99.90
11559;DHT22;5835;42.930;25.178;2022-11-15T15:32:06;7.80;99.90
11559;DHT22;5835;42.930;25.178;2022-11-15T15:34:34;7.60;99.90
11559;DHT22;5835;42.930;25.178;2022-11-15T15:37:11;7.60;99.90
11559;DHT22;5835;42.930;25.178;2022-11-15T15:39:50;7.50;99.90
11559;DHT22;5835;42.930;25.178;2022-11-15T15:42:18;7.50;99.90
11559;DHT22;5835;42.930;25.178;2022-11-15T15:44:47;7.50;99.90
11559;DHT22;5835;42.930;25.178;2022-11-15T15:47:16;7.60;99.90
11559;DHT22;5835;42.930;25.178;2022-11-15T15:49:45;7.60;99.90
11559;DHT22;5835;42.930;25.178;2022-11-15T15:52:13;7.50;99.90
11559;DHT22;5835;42.930;25.178;2022-11-15T15:54:40;7.70;99.90
11559;DHT22;5835;42.930;25.178;2022-11-15T15:57:12;7.70;99.90
11559;DHT22;5835;42.930;25.178;2022-11-15T15:59:40;7.70;99.90
11559;DHT22;5835;42.930;25.178;2022-11-15T16:02:09;7.80;99.90
11559;DHT22;5835;42.930;25.178;2022-11-15T16:04:39;7.80;99.90
11559;DHT22;5835;42.930;25.178;2022-11-15T16:07:15;7.80;99.90
11559;DHT22;5835;42.930;25.178;2022-11-15T16:09:43;7.90;99.90
11559;DHT22;5835;42.930;25.178;2022-11-15T16:12:32;7.90;99.90
11559;DHT22;5835;42.930;25.178;2022-11-15T16:15:01;8.10;99.90
11559;DHT22;5835;42.930;25.178;2022-11-15T16:17:31;8.10;99.90
11559;DHT22;5835;42.930;25.178;2022-11-15T16:19:59;8.20;99.90
11559;DHT22;5835;42.930;25.178;2022-11-15T16:22:27;8.00;99.90
11559;DHT22;5835;42.930;25.178;2022-11-15T16:24:55;8.00;99.90
11559;DHT22;5835;42.930;25.178;2022-11-15T16:27:23;7.90;99.90
11559;DHT22;5835;42.930;25.178;2022-11-15T16:29:52;7.80;99.90